ADDS METAR Data INFO
IDs: Format: Raw Decoded Include TAF

Data at: 1845 UTC 17 Oct 2017

KBIJ 171835Z AUTO 05007KT 020V080 10SM CLR 23/05 A3020 RMK AO2
KBIJ 171815Z AUTO 05008KT 360V070 10SM CLR 23/04 A3021 RMK AO2
KBIJ 171755Z AUTO 07011G15KT 10SM CLR 23/05 A3022 RMK AO2
KBIJ 171735Z AUTO 09010G14KT 10SM CLR 23/05 A3023 RMK AO2
KBIJ 171715Z AUTO 05008G14KT 020V080 10SM CLR 22/06 A3024 RMK AO2
KBIJ 171655Z AUTO 06009G15KT 020V090 10SM CLR 22/06 A3024 RMK AO2
KBIJ 171635Z AUTO 05007G14KT 10SM CLR 22/06 A3025 RMK AO2
KBIJ 171615Z AUTO 07009G17KT 10SM CLR 21/06 A3025 RMK AO2
KBIJ 171555Z AUTO 06009G18KT 10SM CLR 21/06 A3026 RMK AO2
KBIJ 171535Z AUTO 06010G14KT 10SM CLR 20/06 A3026 RMK AO2
KBIJ 171515Z AUTO 08014G19KT 10SM CLR 20/06 A3026 RMK AO2
KBIJ 171455Z AUTO 09014G18KT 10SM CLR 20/07 A3026 RMK AO2
KBIJ 171435Z AUTO 08015G21KT 10SM CLR 19/07 A3026 RMK AO2
KBIJ 171415Z AUTO 07014G22KT 10SM CLR 18/07 A3025 RMK AO2
KBIJ 171355Z AUTO 07015G19KT 10SM CLR 17/08 A3025 RMK AO2
KBIJ 171335Z AUTO 07010G17KT 10SM CLR 17/08 A3025 RMK AO2
KBIJ 171315Z AUTO 08010KT 10SM CLR 16/08 A3024 RMK AO2
KBIJ 171255Z AUTO 07008KT 10SM CLR 16/08 A3024 RMK AO2
KBIJ 171235Z AUTO 06006KT 10SM CLR 15/08 A3022 RMK AO2
KBIJ 171215Z AUTO 06006KT 10SM CLR 15/08 A3022 RMK AO2
KBIJ 171155Z AUTO 06005KT 10SM CLR 15/08 A3022 RMK AO2
KBIJ 171135Z AUTO 07006KT 10SM CLR 15/08 A3021 RMK AO2
KBIJ 171110Z AUTO 06005KT 10SM CLR 15/08 A3020 RMK AO2
KBIJ 171055Z AUTO 05003KT 10SM CLR 16/08 A3019 RMK AO2
KBIJ 171035Z AUTO 06007KT 10SM CLR 16/08 A3018 RMK AO2
KBIJ 171015Z AUTO 06006KT 10SM CLR 16/09 A3017 RMK AO2
KBIJ 170955Z AUTO 06005KT 10SM CLR 16/10 A3017 RMK AO2
KBIJ 170935Z AUTO 07010G14KT 10SM CLR 16/10 A3016 RMK AO2
KBIJ 170915Z AUTO 06004KT 10SM CLR 16/11 A3016 RMK AO2
KBIJ 170855Z AUTO 06003KT 10SM CLR 16/12 A3015 RMK AO2
KBIJ 170835Z AUTO 06003KT 10SM CLR 16/12 A3015 RMK AO2
KBIJ 170815Z AUTO 06003KT 10SM CLR 16/12 A3014 RMK AO2
KBIJ 170755Z AUTO 07004KT 10SM CLR 16/12 A3013 RMK AO2
KBIJ 170735Z AUTO 05003KT 10SM CLR 16/11 A3013 RMK AO2
KBIJ 170715Z AUTO 03003KT 10SM CLR 16/11 A3014 RMK AO2
KBIJ 170655Z AUTO 03003KT 10SM CLR 16/11 A3013 RMK AO2
KBIJ 170635Z AUTO 03004KT 10SM CLR 16/11 A3013 RMK AO2
KBIJ 170615Z AUTO 00000KT 10SM CLR 16/10 A3013 RMK AO2
KBIJ 170555Z AUTO 02003KT 10SM CLR 16/10 A3013 RMK AO2
KBIJ 170535Z AUTO 00000KT 10SM CLR 16/10 A3013 RMK AO2
KBIJ 170515Z AUTO 02003KT 10SM SCT033 16/10 A3013 RMK AO2
KBIJ 170455Z AUTO 02005KT 10SM SCT033 16/10 A3013 RMK AO2
KBIJ 170435Z AUTO 02004KT 10SM SCT033 16/10 A3013 RMK AO2
KBIJ 170415Z AUTO 02005KT 10SM CLR 16/10 A3013 RMK AO2
KBIJ 170355Z AUTO 02004KT 10SM CLR 17/10 A3013 RMK AO2
KBIJ 170335Z AUTO 01004KT 10SM CLR 17/10 A3013 RMK AO2
KBIJ 170315Z AUTO 03005KT 10SM CLR 17/11 A3013 RMK AO2
KBIJ 170255Z AUTO 02004KT 10SM CLR 17/11 A3013 RMK AO2
KBIJ 170235Z AUTO 01004KT 10SM CLR 17/11 A3012 RMK AO2
KBIJ 170215Z AUTO 36005KT 10SM CLR 18/11 A3012 RMK AO2
KBIJ 170155Z AUTO 01005KT 10SM CLR 18/11 A3011 RMK AO2
KBIJ 170135Z AUTO 01006KT 10SM CLR 18/11 A3010 RMK AO2
KBIJ 170115Z AUTO 01005KT 10SM CLR 18/11 A3010 RMK AO2
KBIJ 170055Z AUTO 36003KT 10SM CLR 19/12 A3010 RMK AO2
KBIJ 170035Z AUTO 36005KT 10SM CLR 19/12 A3009 RMK AO2
KBIJ 170015Z AUTO 00000KT 10SM CLR 19/13 A3008 RMK AO2
KBIJ 162355Z AUTO 00000KT 10SM CLR 19/13 A3008 RMK AO2
KBIJ 162335Z AUTO 00000KT 10SM CLR 20/13 A3006 RMK AO2
KBIJ 162315Z AUTO 00000KT 10SM CLR 20/13 A3006 RMK AO2
KBIJ 162255Z AUTO 01004KT 10SM CLR 21/12 A3005 RMK AO2
KBIJ 162235Z AUTO 36006KT 10SM CLR 22/13 A3004 RMK AO2
KBIJ 162215Z AUTO 36007G14KT 10SM CLR 23/15 A3003 RMK AO2
KBIJ 162155Z AUTO 36009KT 10SM CLR 23/15 A3002 RMK AO2
KBIJ 162135Z AUTO 35007KT 10SM CLR 23/16 A3003 RMK AO2
KBIJ 162115Z AUTO 36009KT 10SM CLR 25/16 A3002 RMK AO2
KBIJ 162055Z AUTO 35009KT 310V010 10SM CLR 25/17 A3002 RMK AO2
KBIJ 162035Z AUTO 35008KT 10SM SCT025 26/18 A3002 RMK AO2
KBIJ 162015Z AUTO 01006KT 10SM SCT023 26/18 A3002 RMK AO2
KBIJ 161955Z AUTO 36006KT 10SM SCT017 25/18 A3002 RMK AO2
KBIJ 161935Z AUTO 34005KT 10SM BKN015 25/19 A3002 RMK AO2 LTG DSNT SE
KBIJ 161915Z AUTO 01008KT 10SM OVC015 24/19 A3003 RMK AO2
KBIJ 161855Z AUTO 34009KT 10SM OVC017 25/20 A3003 RMK AO2
KBIJ 161835Z AUTO 35006KT 310V010 10SM OVC019 25/20 A3003 RMK AO2
KBIJ 161815Z AUTO 35007KT 10SM BKN019 OVC025 26/20 A3003 RMK AO2 LTG DSNT SE
KBIJ 161755Z AUTO 36007KT 330V030 10SM BKN017 26/21 A3004 RMK AO2
KBIJ 161735Z AUTO 34007KT 7SM BKN016 OVC023 25/21 A3005 RMK AO2
KBIJ 161715Z AUTO 35010G14KT 10SM BKN017 OVC025 26/20 A3006 RMK AO2
KBIJ 161655Z AUTO 35005KT 10SM SCT017 OVC023 26/21 A3007 RMK AO2
KBIJ 161635Z AUTO 01006KT 10SM SCT015 OVC023 26/21 A3007 RMK AO2
KBIJ 161615Z AUTO 01004KT 10SM BKN013 OVC019 25/21 A3007 RMK AO2
KBIJ 161555Z AUTO 01005KT 10SM OVC011 25/21 A3008 RMK AO2
KBIJ 161535Z AUTO 32004KT 10SM OVC009 25/22 A3007 RMK AO2
KBIJ 161515Z AUTO 33005KT 10SM OVC009 25/22 A3008 RMK AO2
KBIJ 161455Z AUTO 33003KT 10SM OVC009 26/22 A3007 RMK AO2
KBIJ 161435Z AUTO 31005KT 10SM BKN009 26/22 A3007 RMK AO2
KBIJ 161415Z AUTO 31003KT 10SM SCT009 26/22 A3006 RMK AO2
KBIJ 161355Z AUTO 35005KT 10SM CLR 25/22 A3006 RMK AO2
KBIJ 161335Z AUTO 33005KT 10SM CLR 25/22 A3007 RMK AO2
KBIJ 161315Z AUTO 33003KT 10SM CLR 24/21 A3006 RMK AO2
KBIJ 161255Z AUTO 00000KT 10SM CLR 22/20 A3005 RMK AO2
KBIJ 161235Z AUTO 00000KT 10SM CLR 21/20 A3004 RMK AO2
KBIJ 161215Z AUTO 00000KT 7SM CLR 21/19 A3004 RMK AO2
KBIJ 161155Z AUTO 00000KT 7SM CLR 20/18 A3003 RMK AO2
KBIJ 161135Z AUTO 00000KT 7SM CLR 21/19 A3003 RMK AO2
KBIJ 161115Z AUTO 00000KT 7SM CLR 21/19 A3003 RMK AO2
KBIJ 161055Z AUTO 00000KT 7SM CLR 21/19 A3002 RMK AO2
KBIJ 161035Z AUTO 00000KT 7SM SCT080 21/20 A3002 RMK AO2
KBIJ 161015Z AUTO 00000KT 7SM SCT080 21/20 A3002 RMK AO2
KBIJ 160955Z AUTO 00000KT 7SM SCT080 SCT120 21/20 A3001 RMK AO2
KBIJ 160935Z AUTO 00000KT 10SM BKN120 21/20 A3001 RMK AO2
KBIJ 160915Z AUTO 00000KT 10SM SCT120 21/20 A3001 RMK AO2
KBIJ 160855Z AUTO 00000KT 10SM SCT120 22/20 A3002 RMK AO2
KBIJ 160835Z AUTO 00000KT 10SM SCT120 22/20 A3002 RMK AO2
KBIJ 160815Z AUTO 00000KT 10SM CLR 22/20 A3002 RMK AO2
KBIJ 160755Z AUTO 00000KT 10SM CLR 22/21 A3002 RMK AO2 LTG DSNT SW
KBIJ 160735Z AUTO 00000KT 10SM CLR 22/21 A3003 RMK AO2
KBIJ 160715Z AUTO 00000KT 10SM CLR 22/21 A3004 RMK AO2
KBIJ 160650Z AUTO 00000KT 10SM -DZ SCT110 22/21 A3004 RMK AO2